Time;durP1;ratioP1;P1;durP2;ratioP2;P2;SDS_P1;SDS_P2;PMS_P1;PMS_P2;Temp;Humidity;BMP_temperature;BMP_pressure;BME280_temperature;BME280_humidity;BME280_pressure;Samples;Min_cycle;Max_cycle;Signal;HPM_P1;HPM_P2
2022/07/01 00:00:20;;;;;;;3.03;0.90;;;16.20;99.90;;;;;;5021380;28;20038;-77
2022/07/01 00:02:46;;;;;;;0.82;0.40;;;16.10;99.90;;;;;;5026707;28;20399;-76
2022/07/01 00:05:13;;;;;;;1.95;0.77;;;16.00;99.90;;;;;;5022272;28;20033;-76
2022/07/01 00:07:46;;;;;;;2.10;0.50;;;16.00;99.90;;;;;;5020627;28;20040;-76
2022/07/01 00:10:13;;;;;;;2.08;0.50;;;15.90;99.90;;;;;;5029215;28;20063;-78
2022/07/01 00:12:39;;;;;;;3.95;0.50;;;15.70;99.90;;;;;;5019921;28;20034;-77
2022/07/01 00:15:06;;;;;;;2.92;0.70;;;15.70;99.90;;;;;;5021086;28;20048;-75
2022/07/01 00:17:32;;;;;;;2.97;0.65;;;15.60;99.90;;;;;;5032089;28;20052;-76
2022/07/01 00:19:58;;;;;;;1.67;0.57;;;15.40;99.90;;;;;;5026353;28;20042;-76
2022/07/01 00:22:25;;;;;;;2.35;0.80;;;15.30;99.90;;;;;;5020788;28;20056;-76
2022/07/01 00:24:51;;;;;;;0.93;0.40;;;15.40;99.90;;;;;;5018074;28;20392;-76
2022/07/01 00:27:17;;;;;;;3.55;0.70;;;15.40;99.90;;;;;;5015242;28;20065;-75
2022/07/01 00:29:44;;;;;;;1.48;0.70;;;15.30;99.90;;;;;;5019466;28;20044;-75
2022/07/01 00:32:10;;;;;;;1.33;0.40;;;15.30;99.90;;;;;;5044331;28;20049;-76
2022/07/01 00:34:37;;;;;;;1.95;0.50;;;15.20;99.90;;;;;;5022543;28;20037;-76
2022/07/01 00:37:03;;;;;;;1.40;0.93;;;15.20;99.90;;;;;;5032921;28;20056;-76
2022/07/01 00:39:31;;;;;;;1.02;0.50;;;15.10;99.90;;;;;;5019391;28;20029;-79
2022/07/01 00:42:01;;;;;;;3.88;0.77;;;15.20;99.90;;;;;;5016520;28;20368;-75
2022/07/01 00:44:27;;;;;;;1.98;0.70;;;15.30;99.90;;;;;;5029498;28;20041;-75
2022/07/01 00:46:54;;;;;;;1.65;0.47;;;15.30;99.90;;;;;;5027588;28;20042;-75
2022/07/01 00:49:21;;;;;;;1.00;0.50;;;15.30;99.90;;;;;;5029329;28;20034;-80
2022/07/01 00:51:48;;;;;;;0.95;0.40;;;15.30;99.90;;;;;;5023275;28;20076;-75
2022/07/01 00:54:14;;;;;;;1.38;0.77;;;15.20;99.90;;;;;;5031907;28;20045;-76
2022/07/01 00:56:40;;;;;;;1.08;0.52;;;15.20;99.90;;;;;;5031627;28;20045;-76
2022/07/01 00:59:07;;;;;;;1.10;0.57;;;15.30;99.90;;;;;;5019846;28;20044;-76
2022/07/01 01:01:34;;;;;;;0.95;0.45;;;15.20;99.90;;;;;;5013677;28;20030;-75
2022/07/01 01:04:00;;;;;;;1.27;0.70;;;15.10;99.90;;;;;;5031017;28;20372;-75
2022/07/01 01:06:27;;;;;;;1.40;0.80;;;15.20;99.90;;;;;;5013832;28;20038;-75
2022/07/01 01:08:54;;;;;;;1.88;1.00;;;15.10;99.90;;;;;;5024588;28;20026;-75
2022/07/01 01:11:20;;;;;;;1.80;0.80;;;15.10;99.90;;;;;;5034199;28;20044;-76
2022/07/01 01:13:46;;;;;;;2.58;0.65;;;15.10;99.90;;;;;;5024292;28;20475;-78
2022/07/01 01:16:20;;;;;;;1.80;0.77;;;15.10;99.90;;;;;;5020382;28;20061;-75
2022/07/01 01:18:47;;;;;;;2.70;0.90;;;15.20;99.90;;;;;;5039731;28;20037;-77
2022/07/01 01:21:13;;;;;;;3.72;0.75;;;15.20;99.90;;;;;;5031583;28;20470;-76
2022/07/01 01:23:39;;;;;;;2.05;0.82;;;15.20;99.90;;;;;;5025247;28;20040;-76
2022/07/01 01:26:19;;;;;;;2.47;1.15;;;15.20;99.90;;;;;;5020095;28;20509;-75
2022/07/01 01:28:46;;;;;;;1.60;0.80;;;15.20;99.90;;;;;;5018025;28;20034;-77
2022/07/01 01:31:13;;;;;;;1.25;0.75;;;15.10;99.90;;;;;;5023783;28;20044;-75
2022/07/01 01:33:39;;;;;;;1.70;0.73;;;15.10;99.90;;;;;;5024590;28;20068;-77
2022/07/01 01:36:06;;;;;;;1.30;0.47;;;15.10;99.90;;;;;;5022508;28;20462;-76
2022/07/01 01:38:36;;;;;;;1.50;0.43;;;15.10;99.90;;;;;;5030779;28;20524;-77
2022/07/01 01:41:04;;;;;;;1.05;0.40;;;15.20;99.90;;;;;;5036753;28;20049;-77
2022/07/01 01:43:30;;;;;;;1.77;0.68;;;15.20;99.90;;;;;;5019511;28;20041;-76
2022/07/01 01:45:56;;;;;;;1.10;0.50;;;15.30;99.90;;;;;;5030501;28;20040;-76
2022/07/01 01:48:22;;;;;;;2.00;0.70;;;15.20;99.90;;;;;;5029721;28;20044;-76
2022/07/01 01:50:49;;;;;;;0.80;0.50;;;15.20;99.90;;;;;;5013266;28;20060;-75
2022/07/01 01:53:15;;;;;;;1.38;0.50;;;15.20;99.90;;;;;;5030217;28;20386;-75
2022/07/01 01:55:41;;;;;;;0.60;0.40;;;15.20;99.90;;;;;;5030354;28;20029;-77
2022/07/01 01:58:07;;;;;;;1.15;0.30;;;15.10;99.90;;;;;;5030082;28;20477;-75
2022/07/01 02:00:33;;;;;;;1.17;0.47;;;15.10;99.90;;;;;;5017161;28;20026;-75
2022/07/01 02:03:00;;;;;;;1.15;0.60;;;15.20;99.90;;;;;;5019375;28;20502;-75
2022/07/01 02:05:26;;;;;;;1.35;0.70;;;15.10;99.90;;;;;;5025679;28;20037;-75
2022/07/01 02:07:52;;;;;;;2.33;0.95;;;15.10;99.90;;;;;;5046536;28;20029;-76
2022/07/01 02:10:18;;;;;;;1.17;0.55;;;15.20;99.90;;;;;;5021737;28;20034;-76
2022/07/01 02:12:45;;;;;;;2.53;0.95;;;15.10;99.90;;;;;;5020696;28;20042;-79
2022/07/01 02:15:11;;;;;;;3.97;0.90;;;15.10;99.90;;;;;;5024334;28;20046;-78
2022/07/01 02:17:37;;;;;;;1.25;0.55;;;15.10;99.90;;;;;;5018911;28;20022;-75
2022/07/01 02:20:04;;;;;;;2.90;0.68;;;15.10;99.90;;;;;;5021794;28;20060;-76
2022/07/01 02:22:30;;;;;;;1.65;0.50;;;15.10;99.90;;;;;;5015570;28;20045;-75
2022/07/01 02:24:57;;;;;;;1.25;0.52;;;15.00;99.90;;;;;;5039251;28;20046;-76
2022/07/01 02:27:23;;;;;;;1.20;0.40;;;15.00;99.90;;;;;;5028390;28;20034;-76
2022/07/01 02:29:49;;;;;;;1.00;0.43;;;15.10;99.90;;;;;;5023601;28;20038;-76
2022/07/01 02:32:15;;;;;;;1.23;0.60;;;15.10;99.90;;;;;;5018095;28;20121;-79
2022/07/01 02:34:41;;;;;;;1.00;0.50;;;15.10;99.90;;;;;;5021410;28;20026;-75
2022/07/01 02:37:08;;;;;;;1.15;0.65;;;15.10;99.90;;;;;;5013930;28;20053;-75
2022/07/01 02:39:34;;;;;;;2.78;0.60;;;15.10;99.90;;;;;;5015694;28;20026;-75
2022/07/01 02:44:46;;;;;;;0.73;0.45;;;15.10;99.90;;;;;;5033689;28;20040;-76
2022/07/01 02:47:12;;;;;;;1.13;0.50;;;15.10;99.90;;;;;;5017725;28;20202;-76
2022/07/01 02:49:39;;;;;;;4.35;0.75;;;15.10;99.90;;;;;;5032049;28;20021;-79
2022/07/01 02:52:06;;;;;;;1.02;0.50;;;15.10;99.90;;;;;;5018651;28;20034;-75
2022/07/01 02:54:32;;;;;;;2.83;0.80;;;15.10;99.90;;;;;;5015156;28;20030;-75
2022/07/01 02:56:58;;;;;;;2.55;0.90;;;15.00;99.90;;;;;;5022212;28;20029;-76
2022/07/01 02:59:24;;;;;;;3.33;1.15;;;14.90;99.90;;;;;;5041609;28;20049;-77
2022/07/01 03:01:50;;;;;;;1.83;0.70;;;14.90;99.90;;;;;;5025881;28;20037;-76
2022/07/01 03:04:16;;;;;;;0.90;0.52;;;14.90;99.90;;;;;;5018993;28;20483;-75
2022/07/01 03:06:43;;;;;;;2.83;0.75;;;14.90;99.90;;;;;;5030450;28;20045;-75
2022/07/01 03:09:09;;;;;;;1.88;0.60;;;14.90;99.90;;;;;;5021960;28;20034;-74
2022/07/01 03:11:35;;;;;;;0.98;0.47;;;14.80;99.90;;;;;;5025328;28;20438;-75
2022/07/01 03:14:01;;;;;;;2.22;0.95;;;14.70;99.90;;;;;;5017087;28;20029;-75
2022/07/01 03:16:28;;;;;;;2.00;0.60;;;14.70;99.90;;;;;;5028771;28;20052;-75
2022/07/01 03:18:54;;;;;;;1.35;0.45;;;14.70;99.90;;;;;;5022568;28;20041;-75
2022/07/01 03:21:20;;;;;;;2.28;0.47;;;14.80;99.90;;;;;;5019583;28;20028;-76
2022/07/01 03:23:46;;;;;;;4.10;1.05;;;14.80;99.90;;;;;;5043733;28;20037;-76
2022/07/01 03:26:14;;;;;;;1.35;0.93;;;14.80;99.90;;;;;;5018218;28;20037;-74
2022/07/01 03:28:40;;;;;;;3.47;0.80;;;14.80;99.90;;;;;;5037328;28;20049;-76
2022/07/01 03:31:07;;;;;;;1.48;0.60;;;14.70;99.90;;;;;;5020228;28;20034;-78
2022/07/01 03:33:33;;;;;;;0.95;0.57;;;14.70;99.90;;;;;;5020410;28;20463;-75
2022/07/01 03:35:59;;;;;;;0.63;0.40;;;14.60;99.90;;;;;;5021925;28;20030;-75
2022/07/01 03:38:25;;;;;;;0.77;0.40;;;14.70;99.90;;;;;;5023008;28;20041;-76
2022/07/01 03:40:51;;;;;;;6.28;0.95;;;14.70;99.90;;;;;;5017561;28;20030;-75
2022/07/01 03:43:18;;;;;;;1.95;0.82;;;14.70;99.90;;;;;;5020742;28;20045;-75
2022/07/01 03:45:44;;;;;;;1.38;0.55;;;14.70;99.90;;;;;;5015117;28;20038;-76
2022/07/01 03:48:10;;;;;;;2.35;0.80;;;14.70;99.90;;;;;;5027448;28;20467;-76
2022/07/01 03:50:37;;;;;;;1.70;0.70;;;14.70;99.90;;;;;;5017004;28;20022;-78
2022/07/01 03:55:47;;;;;;;1.75;0.93;;;14.70;99.90;;;;;;5019935;28;20034;-74
2022/07/01 03:58:14;;;;;;;2.08;0.73;;;14.70;99.90;;;;;;5028706;28;20041;-73
2022/07/01 04:00:40;;;;;;;3.20;0.65;;;14.70;99.90;;;;;;5018184;28;20300;-74
2022/07/01 04:03:06;;;;;;;1.20;0.50;;;14.60;99.90;;;;;;5028771;28;20045;-74
2022/07/01 04:05:37;;;;;;;2.25;0.60;;;14.60;99.90;;;;;;5026004;28;20052;-74
2022/07/01 04:08:05;;;;;;;1.05;0.50;;;14.60;99.90;;;;;;5033669;28;20045;-74
2022/07/01 04:10:35;;;;;;;1.08;0.52;;;14.60;99.90;;;;;;5027564;28;20041;-74
2022/07/01 04:13:02;;;;;;;1.73;0.55;;;14.70;99.90;;;;;;5019507;28;20044;-74
2022/07/01 04:15:30;;;;;;;2.95;0.70;;;14.70;99.90;;;;;;5035670;28;20060;-74
2022/07/01 04:17:56;;;;;;;2.30;0.88;;;14.70;99.90;;;;;;5020485;28;20037;-74
2022/07/01 04:20:22;;;;;;;2.13;0.77;;;14.70;99.90;;;;;;5041405;28;20471;-75
2022/07/01 04:22:48;;;;;;;2.22;1.00;;;14.80;99.90;;;;;;5019667;28;20040;-74
2022/07/01 04:25:15;;;;;;;5.38;0.90;;;14.80;99.90;;;;;;5024379;28;20037;-75
2022/07/01 04:27:41;;;;;;;3.03;1.48;;;14.80;99.90;;;;;;5025015;28;20025;-75
2022/07/01 04:30:08;;;;;;;4.07;0.90;;;14.80;99.90;;;;;;5017126;28;20044;-75
2022/07/01 04:32:35;;;;;;;2.08;1.20;;;14.80;99.90;;;;;;5030283;28;20025;-75
2022/07/01 04:35:01;;;;;;;3.55;1.55;;;14.80;99.90;;;;;;5024671;28;20045;-74
2022/07/01 04:37:27;;;;;;;4.30;1.70;;;14.90;99.90;;;;;;5021815;28;20485;-75
2022/07/01 04:39:53;;;;;;;4.68;1.45;;;14.90;99.90;;;;;;5018203;28;20041;-75
2022/07/01 04:42:21;;;;;;;3.38;1.08;;;14.90;99.90;;;;;;5018182;28;20455;-75
2022/07/01 04:44:48;;;;;;;2.75;0.85;;;15.00;99.90;;;;;;5020039;28;20472;-73
2022/07/01 04:47:14;;;;;;;1.95;0.88;;;15.00;99.90;;;;;;5019401;28;20494;-73
2022/07/01 04:49:40;;;;;;;3.08;1.10;;;15.00;99.90;;;;;;5023910;28;20029;-75
2022/07/01 04:52:06;;;;;;;2.42;1.20;;;15.00;99.90;;;;;;5019350;28;20498;-74
2022/07/01 04:54:33;;;;;;;3.78;1.10;;;15.10;99.90;;;;;;5014194;28;20376;-72
2022/07/01 04:56:59;;;;;;;2.60;1.05;;;15.20;99.90;;;;;;5017722;28;20033;-72
2022/07/01 04:59:25;;;;;;;2.03;1.10;;;15.20;99.90;;;;;;5032577;28;20033;-75
2022/07/01 05:01:51;;;;;;;2.95;1.33;;;15.30;99.90;;;;;;5019586;28;20026;-75
2022/07/01 05:04:19;;;;;;;3.45;1.45;;;15.40;99.90;;;;;;5017287;28;20037;-75
2022/07/01 05:06:45;;;;;;;2.60;1.00;;;15.40;99.90;;;;;;5018245;28;20034;-75
2022/07/01 05:09:11;;;;;;;3.25;1.23;;;15.50;99.90;;;;;;5019982;28;20052;-74
2022/07/01 05:11:38;;;;;;;2.80;1.40;;;15.50;99.90;;;;;;5015630;28;20490;-75
2022/07/01 05:14:06;;;;;;;4.00;1.27;;;15.60;99.90;;;;;;5020792;28;20112;-76
2022/07/01 05:16:33;;;;;;;3.00;1.35;;;15.70;99.90;;;;;;5023836;28;20038;-76
2022/07/01 05:22:00;;;;;;;2.58;1.48;;;16.00;99.90;;;;;;5030929;28;20060;-76
2022/07/01 05:24:31;;;;;;;2.33;1.00;;;16.10;99.90;;;;;;5018232;28;20037;-76
2022/07/01 05:26:58;;;;;;;3.08;1.30;;;16.00;99.90;;;;;;5033699;28;20041;-77
2022/07/01 05:29:24;;;;;;;3.25;1.38;;;15.80;99.90;;;;;;5018877;28;20037;-77
2022/07/01 05:31:51;;;;;;;2.95;1.30;;;15.70;99.90;;;;;;5029821;28;20467;-80
2022/07/01 05:34:17;;;;;;;2.35;1.48;;;15.80;99.90;;;;;;5018073;28;20424;-76
2022/07/01 05:36:45;;;;;;;3.67;2.60;;;15.80;99.90;;;;;;5028574;28;20044;-76
2022/07/01 05:39:11;;;;;;;3.20;1.63;;;15.90;99.90;;;;;;5029402;28;20368;-75
2022/07/01 05:41:37;;;;;;;6.32;2.58;;;15.90;99.90;;;;;;5030361;28;20033;-76
2022/07/01 05:44:04;;;;;;;3.67;1.40;;;15.90;99.90;;;;;;5020028;28;20042;-75
2022/07/01 05:46:30;;;;;;;2.63;1.38;;;16.00;99.90;;;;;;5017441;28;20572;-76
2022/07/01 05:48:56;;;;;;;3.15;1.20;;;16.00;99.90;;;;;;5015144;28;20041;-76
2022/07/01 05:51:23;;;;;;;3.88;1.75;;;15.90;99.90;;;;;;5017251;28;20030;-76
2022/07/01 05:53:49;;;;;;;2.70;1.77;;;15.90;99.90;;;;;;5033235;28;20050;-76
2022/07/01 05:56:15;;;;;;;3.58;1.92;;;15.80;99.90;;;;;;5024373;28;20034;-75
2022/07/01 05:58:42;;;;;;;3.03;1.83;;;15.70;99.90;;;;;;5021932;28;20045;-75
2022/07/01 06:01:08;;;;;;;2.80;1.45;;;15.60;99.90;;;;;;5019334;28;20042;-75
2022/07/01 06:03:34;;;;;;;2.17;1.23;;;15.50;99.90;;;;;;5017600;28;20040;-75
2022/07/01 06:06:01;;;;;;;1.48;0.77;;;15.50;99.90;;;;;;5018998;28;20487;-75
2022/07/01 06:08:27;;;;;;;2.72;0.88;;;15.50;99.90;;;;;;5015852;28;20038;-75
2022/07/01 06:10:53;;;;;;;3.03;1.50;;;15.50;99.90;;;;;;5024995;28;20042;-75
2022/07/01 06:13:19;;;;;;;1.92;1.10;;;15.50;99.90;;;;;;5036861;28;20391;-75
2022/07/01 06:15:45;;;;;;;2.55;1.17;;;15.40;99.90;;;;;;5018299;28;20054;-77
2022/07/01 06:18:11;;;;;;;2.80;1.27;;;15.40;99.90;;;;;;5035813;28;20041;-76
2022/07/01 06:20:38;;;;;;;2.38;0.93;;;15.40;99.90;;;;;;5017245;28;20038;-76
2022/07/01 06:23:04;;;;;;;3.80;0.88;;;15.40;99.90;;;;;;5014474;28;20044;-75
2022/07/01 06:25:30;;;;;;;2.17;1.00;;;15.40;99.90;;;;;;5019693;28;20033;-76
2022/07/01 06:27:57;;;;;;;4.32;1.45;;;15.40;99.90;;;;;;5017657;28;20042;-75
2022/07/01 06:30:23;;;;;;;1.77;1.02;;;15.50;99.90;;;;;;5019460;28;20032;-75
2022/07/01 06:32:49;;;;;;;2.65;1.08;;;15.50;99.90;;;;;;5013104;28;20045;-75
2022/07/01 06:35:15;;;;;;;5.28;1.40;;;15.40;99.90;;;;;;5030405;28;20045;-74
2022/07/01 06:37:42;;;;;;;3.88;1.23;;;15.30;99.90;;;;;;5027907;28;20030;-74
2022/07/01 06:40:08;;;;;;;1.50;1.17;;;15.30;99.90;;;;;;5030650;28;20037;-74
2022/07/01 06:42:34;;;;;;;3.03;1.67;;;15.30;99.90;;;;;;5021010;28;20033;-75
2022/07/01 06:45:01;;;;;;;2.85;1.38;;;15.30;99.90;;;;;;5017677;28;20061;-74
2022/07/01 06:47:27;;;;;;;2.85;1.77;;;15.20;99.90;;;;;;5014937;28;20046;-73
2022/07/01 06:49:53;;;;;;;3.33;1.83;;;15.20;99.90;;;;;;5016371;28;20399;-73
2022/07/01 06:52:20;;;;;;;1.83;1.20;;;15.20;99.90;;;;;;5020774;28;20034;-72
2022/07/01 06:54:46;;;;;;;5.85;1.33;;;15.20;99.90;;;;;;5019072;28;20042;-72
2022/07/01 06:57:12;;;;;;;4.97;1.20;;;15.10;99.90;;;;;;5019571;28;20040;-72
2022/07/01 06:59:39;;;;;;;2.83;1.58;;;15.20;99.90;;;;;;5020839;28;20037;-72
2022/07/01 07:02:07;;;;;;;3.95;1.52;;;15.20;99.90;;;;;;5017978;28;20580;-72
2022/07/01 07:04:34;;;;;;;5.93;2.72;;;15.30;99.90;;;;;;5019843;28;20045;-74
2022/07/01 07:07:01;;;;;;;5.00;2.25;;;15.50;99.90;;;;;;5027661;28;20040;-73
2022/07/01 07:09:27;;;;;;;3.33;2.35;;;15.70;99.90;;;;;;5032650;28;20037;-73
2022/07/01 07:11:54;;;;;;;3.78;2.55;;;15.90;99.90;;;;;;5018417;28;20046;-73
2022/07/01 07:14:20;;;;;;;3.72;2.67;;;16.10;99.90;;;;;;5027332;28;20037;-73
2022/07/01 07:16:46;;;;;;;5.32;2.33;;;16.20;99.90;;;;;;5024703;28;20064;-73
2022/07/01 07:19:12;;;;;;;3.67;2.30;;;16.30;99.90;;;;;;5020649;28;20025;-73
2022/07/01 07:21:39;;;;;;;3.88;2.20;;;16.40;99.90;;;;;;5017904;28;20037;-73
2022/07/01 07:24:05;;;;;;;3.33;2.10;;;16.40;99.90;;;;;;5015558;28;20038;-72
2022/07/01 07:26:31;;;;;;;4.70;2.58;;;16.10;99.90;;;;;;5023279;28;20049;-72
2022/07/01 07:28:58;;;;;;;3.17;2.00;;;16.00;99.90;;;;;;5019573;28;20467;-73
2022/07/01 07:31:24;;;;;;;4.70;2.05;;;15.90;99.90;;;;;;5020005;28;20517;-77
2022/07/01 07:33:50;;;;;;;4.85;1.98;;;15.90;99.90;;;;;;5002831;28;20040;-72
2022/07/01 07:36:16;;;;;;;3.15;1.70;;;15.90;99.90;;;;;;5021826;28;20037;-73
2022/07/01 07:38:42;;;;;;;2.65;1.30;;;15.80;99.90;;;;;;5016734;28;20045;-73
2022/07/01 07:41:09;;;;;;;3.28;2.08;;;15.60;99.90;;;;;;5021555;28;20030;-76
2022/07/01 07:43:35;;;;;;;2.45;1.30;;;15.60;99.90;;;;;;5021252;28;20035;-73
2022/07/01 07:46:03;;;;;;;2.58;1.77;;;15.60;99.90;;;;;;5030308;28;20029;-75
2022/07/01 07:48:29;;;;;;;5.05;2.38;;;15.80;99.90;;;;;;5033421;28;20032;-74
2022/07/01 07:50:55;;;;;;;1.90;1.38;;;16.10;99.90;;;;;;5027961;28;20033;-75
2022/07/01 07:53:21;;;;;;;4.00;1.65;;;16.10;99.90;;;;;;5022269;28;20034;-74
2022/07/01 07:55:48;;;;;;;3.28;1.40;;;16.10;99.90;;;;;;5025298;28;20040;-75
2022/07/01 07:58:14;;;;;;;3.33;2.10;;;16.00;99.90;;;;;;5018637;28;20042;-73
2022/07/01 08:00:40;;;;;;;3.17;1.52;;;15.90;99.90;;;;;;5022633;28;20029;-73
2022/07/01 08:03:07;;;;;;;4.10;1.80;;;15.90;99.90;;;;;;5032441;28;20029;-74
2022/07/01 08:05:33;;;;;;;2.45;0.82;;;15.90;99.90;;;;;;5020740;28;20387;-75
2022/07/01 08:07:59;;;;;;;1.65;0.73;;;15.90;99.90;;;;;;5024332;28;20038;-73
2022/07/01 08:10:25;;;;;;;4.35;0.98;;;15.80;99.90;;;;;;5030524;28;20036;-73
2022/07/01 08:12:52;;;;;;;1.73;0.80;;;15.60;99.90;;;;;;5020797;28;20124;-74
2022/07/01 08:15:18;;;;;;;4.07;1.08;;;15.70;99.90;;;;;;5026145;28;20045;-73
2022/07/01 08:17:45;;;;;;;4.03;0.90;;;15.90;99.90;;;;;;5032472;28;20197;-72
2022/07/01 08:20:11;;;;;;;2.25;0.82;;;15.90;99.90;;;;;;5026520;28;20048;-74
2022/07/01 08:22:37;;;;;;;2.05;1.02;;;15.90;99.90;;;;;;5028521;28;20022;-72
2022/07/01 08:25:04;;;;;;;1.75;0.90;;;16.00;99.90;;;;;;5024100;28;20377;-72
2022/07/01 08:27:30;;;;;;;1.90;0.57;;;16.30;99.90;;;;;;5023402;28;20049;-73
2022/07/01 08:29:57;;;;;;;3.65;1.20;;;16.30;99.90;;;;;;5018617;28;20037;-74
2022/07/01 08:32:26;;;;;;;4.03;1.08;;;16.30;99.90;;;;;;5021367;28;20472;-74
2022/07/01 08:34:53;;;;;;;3.22;1.35;;;16.20;99.90;;;;;;5023893;28;20041;-73
2022/07/01 08:37:19;;;;;;;1.70;0.90;;;16.30;99.90;;;;;;5024144;28;20033;-74
2022/07/01 08:39:45;;;;;;;1.90;1.00;;;16.50;99.90;;;;;;5028240;28;20502;-72
2022/07/01 08:42:11;;;;;;;3.45;1.05;;;16.50;99.90;;;;;;5032042;28;20033;-77
2022/07/01 08:44:38;;;;;;;1.98;0.93;;;16.00;99.90;;;;;;5044624;28;20038;-72
2022/07/01 08:47:04;;;;;;;2.25;0.95;;;15.90;99.90;;;;;;5043577;28;20034;-72
2022/07/01 08:49:31;;;;;;;3.53;0.70;;;15.90;99.90;;;;;;5028580;28;20034;-73
2022/07/01 08:51:57;;;;;;;1.50;0.70;;;16.10;99.90;;;;;;5024638;28;20030;-73
2022/07/01 08:54:23;;;;;;;1.35;0.70;;;16.10;99.90;;;;;;5016339;28;20045;-73
2022/07/01 08:56:49;;;;;;;1.05;0.40;;;16.00;99.90;;;;;;5015502;28;20041;-73
2022/07/01 08:59:26;;;;;;;5.32;0.98;;;15.90;99.90;;;;;;5029816;28;20478;-72
2022/07/01 09:02:00;;;;;;;2.17;0.70;;;15.80;99.90;;;;;;5018839;28;20034;-72
2022/07/01 09:04:28;;;;;;;1.58;0.77;;;15.70;99.90;;;;;;5019996;28;20045;-75
2022/07/01 09:07:06;;;;;;;1.83;1.02;;;15.70;99.90;;;;;;5017703;28;20041;-74
2022/07/01 09:09:37;;;;;;;4.20;1.88;;;15.80;99.90;;;;;;5028016;28;20030;-76
2022/07/01 09:12:05;;;;;;;2.88;1.95;;;15.90;99.90;;;;;;4998604;28;20038;-76
2022/07/01 09:14:33;;;;;;;3.30;1.80;;;16.10;99.90;;;;;;5026285;28;20045;-75
2022/07/01 09:17:01;;;;;;;3.20;1.83;;;16.50;99.90;;;;;;5022902;28;20057;-76
2022/07/01 09:19:30;;;;;;;2.50;1.20;;;16.90;99.90;;;;;;5019694;28;20030;-74
2022/07/01 09:22:00;;;;;;;1.92;1.13;;;17.30;99.90;;;;;;5028558;28;20049;-74
2022/07/01 09:24:35;;;;;;;2.38;0.98;;;17.40;99.90;;;;;;5023051;28;20467;-81
2022/07/01 09:27:16;;;;;;;1.65;1.10;;;18.00;99.90;;;;;;5017463;28;20029;-75
2022/07/01 09:29:45;;;;;;;3.92;1.02;;;18.30;99.90;;;;;;5025846;28;20033;-77
2022/07/01 09:32:13;;;;;;;2.30;1.42;;;18.30;99.90;;;;;;5028991;28;20032;-74
2022/07/01 09:34:45;;;;;;;2.97;1.45;;;18.20;99.90;;;;;;5028538;28;20029;-77
2022/07/01 09:37:16;;;;;;;2.50;1.08;;;17.70;99.90;;;;;;5026711;28;20029;-76
2022/07/01 09:39:47;;;;;;;3.78;1.13;;;17.60;99.90;;;;;;5042179;28;20042;-75
2022/07/01 09:42:17;;;;;;;5.22;1.38;;;18.10;99.90;;;;;;5029037;28;20029;-75
2022/07/01 09:44:55;;;;;;;2.17;1.25;;;18.30;99.90;;;;;;5030094;28;20143;-76
2022/07/01 09:47:28;;;;;;;1.80;1.08;;;19.10;99.90;;;;;;5024872;28;20034;-76
2022/07/01 09:49:56;;;;;;;1.98;0.75;;;19.90;99.90;;;;;;5029703;28;20221;-76
2022/07/01 09:52:23;;;;;;;3.08;1.27;;;20.70;99.90;;;;;;5028156;28;20030;-76
2022/07/01 09:54:50;;;;;;;2.47;0.80;;;20.30;96.60;;;;;;5029422;28;20053;-76
2022/07/01 09:57:18;;;;;;;2.30;0.80;;;19.50;99.90;;;;;;5026197;28;20075;-76
2022/07/01 09:59:45;;;;;;;1.00;0.60;;;19.20;99.90;;;;;;5029973;28;20037;-76
2022/07/01 10:02:12;;;;;;;1.92;1.08;;;19.70;98.80;;;;;;5028925;28;20030;-77
2022/07/01 10:04:47;;;;;;;3.58;0.80;;;19.30;97.00;;;;;;5030292;28;20038;-77
2022/07/01 10:07:39;;;;;;;1.30;0.70;;;19.40;97.10;;;;;;5027696;28;20033;-77
2022/07/01 10:10:28;;;;;;;3.97;0.80;;;20.20;96.70;;;;;;5028178;28;20029;-74
2022/07/01 10:12:56;;;;;;;1.80;0.80;;;20.20;92.40;;;;;;5031235;28;20296;-76
2022/07/01 10:15:23;;;;;;;2.95;1.13;;;19.40;96.10;;;;;;5021977;28;20049;-75
2022/07/01 10:17:52;;;;;;;6.18;0.90;;;19.20;96.40;;;;;;5022791;28;20049;-75
2022/07/01 10:20:24;;;;;;;2.35;0.57;;;18.80;96.20;;;;;;5015707;28;20029;-75
2022/07/01 10:23:04;;;;;;;2.92;0.65;;;18.90;97.00;;;;;;5024583;28;20038;-75
2022/07/01 10:25:43;;;;;;;2.70;0.70;;;18.70;97.00;;;;;;5017454;28;20460;-75
2022/07/01 10:28:28;;;;;;;4.70;0.85;;;18.80;97.00;;;;;;5024804;28;20030;-75
2022/07/01 10:31:05;;;;;;;2.35;0.73;;;18.30;97.30;;;;;;5041331;28;20095;-75
2022/07/01 10:33:49;;;;;;;2.25;0.70;;;18.30;98.30;;;;;;5021466;28;20030;-76
2022/07/01 10:36:16;;;;;;;4.05;0.85;;;18.20;99.40;;;;;;5023794;28;20037;-76
2022/07/01 10:39:01;;;;;;;1.52;0.80;;;18.40;98.90;;;;;;5014868;28;20109;-76
2022/07/01 10:41:33;;;;;;;3.80;1.10;;;18.70;98.40;;;;;;5016035;28;20034;-86
2022/07/01 10:44:03;;;;;;;3.08;0.88;;;19.10;96.30;;;;;;5017991;28;20040;-75
2022/07/01 10:46:41;;;;;;;2.60;0.82;;;19.30;96.60;;;;;;5018343;28;20118;-77
2022/07/01 10:49:08;;;;;;;2.83;0.60;;;19.70;96.10;;;;;;5021303;28;20402;-76
2022/07/01 10:51:50;;;;;;;1.67;0.80;;;19.90;94.60;;;;;;5018574;28;20042;-76
2022/07/01 10:54:36;;;;;;;2.33;0.80;;;20.30;93.20;;;;;;5029635;28;20034;-80
2022/07/01 10:59:47;;;;;;;1.30;0.80;;;20.40;93.70;;;;;;5016809;28;20038;-77
2022/07/01 11:02:20;;;;;;;1.55;0.70;;;20.20;93.00;;;;;;5017817;28;20026;-77
2022/07/01 11:04:48;;;;;;;5.85;1.23;;;20.10;92.90;;;;;;5026820;28;20033;-76
2022/07/01 11:07:14;;;;;;;1.55;1.10;;;20.10;92.80;;;;;;5030292;28;20052;-78
2022/07/01 11:09:40;;;;;;;2.63;0.88;;;20.10;93.10;;;;;;5018856;28;20045;-76
2022/07/01 11:12:08;;;;;;;1.90;1.00;;;20.00;92.40;;;;;;5019168;28;20029;-77
2022/07/01 11:14:40;;;;;;;3.13;1.20;;;19.60;92.60;;;;;;5029504;28;20142;-76
2022/07/01 11:17:08;;;;;;;2.95;1.17;;;19.20;94.00;;;;;;5022698;28;20048;-76
2022/07/01 11:19:34;;;;;;;2.13;0.98;;;19.00;94.10;;;;;;5026542;28;20038;-76
2022/07/01 11:22:02;;;;;;;4.03;1.17;;;19.00;94.70;;;;;;5028257;28;20033;-77
2022/07/01 11:24:29;;;;;;;2.85;1.23;;;19.00;94.20;;;;;;5024005;28;20045;-81
2022/07/01 11:27:01;;;;;;;2.58;1.27;;;18.90;94.00;;;;;;5040844;28;20041;-77
2022/07/01 11:29:28;;;;;;;3.33;2.00;;;19.00;94.30;;;;;;5028181;28;20037;-76
2022/07/01 11:31:55;;;;;;;2.67;1.25;;;19.50;94.40;;;;;;5020105;28;20493;-75
2022/07/01 11:34:21;;;;;;;4.55;1.75;;;20.00;93.60;;;;;;5024593;28;20037;-75
2022/07/01 11:39:35;;;;;;;3.15;2.35;;;20.80;89.40;;;;;;5030152;28;20025;-75
2022/07/01 11:42:04;;;;;;;4.25;2.28;;;20.40;91.20;;;;;;5028097;28;20025;-76
2022/07/01 11:44:36;;;;;;;4.00;1.77;;;20.20;91.20;;;;;;5029407;28;20029;-76
2022/07/01 11:47:07;;;;;;;3.60;1.98;;;20.30;92.30;;;;;;5033890;28;20036;-76
2022/07/01 11:49:42;;;;;;;3.28;1.48;;;20.40;91.10;;;;;;5032162;28;20026;-77
2022/07/01 11:52:10;;;;;;;3.22;1.60;;;20.50;90.90;;;;;;5027694;28;20030;-76
2022/07/01 11:54:38;;;;;;;2.45;1.60;;;20.50;90.00;;;;;;5029271;28;20050;-76
2022/07/01 11:57:13;;;;;;;3.22;1.45;;;20.50;92.60;;;;;;5045473;28;20025;-76
2022/07/01 11:59:40;;;;;;;2.30;1.10;;;20.90;91.00;;;;;;5029821;28;20391;-74
2022/07/01 12:02:07;;;;;;;3.75;1.30;;;21.10;89.10;;;;;;5026513;28;20041;-78
2022/07/01 12:04:34;;;;;;;3.50;1.25;;;21.20;83.90;;;;;;5028877;28;20049;-78
2022/07/01 12:07:01;;;;;;;2.40;0.95;;;21.30;85.00;;;;;;5034190;28;20037;-76
2022/07/01 12:09:28;;;;;;;2.60;1.00;;;21.10;81.80;;;;;;5019550;28;20037;-74
2022/07/01 12:11:54;;;;;;;1.83;1.20;;;21.00;86.70;;;;;;5016879;28;20044;-74
2022/07/01 12:14:25;;;;;;;2.08;1.08;;;21.00;84.90;;;;;;5019532;28;20026;-75
2022/07/01 12:16:53;;;;;;;2.40;1.13;;;20.60;87.90;;;;;;5022467;28;20049;-75
2022/07/01 12:19:20;;;;;;;3.05;1.00;;;20.10;88.20;;;;;;5030099;28;20040;-76
2022/07/01 12:21:53;;;;;;;3.70;0.73;;;20.10;86.30;;;;;;5017903;28;20037;-74
2022/07/01 12:24:23;;;;;;;1.60;1.05;;;20.20;85.50;;;;;;5017119;28;20030;-74
2022/07/01 12:26:51;;;;;;;;;;;20.50;89.30;;;;;;5031144;28;20483;-74
2022/07/01 12:29:28;;;;;;;2.30;0.88;;;20.60;89.50;;;;;;5021964;28;19914;-75
2022/07/01 12:32:00;;;;;;;3.17;0.90;;;21.00;87.10;;;;;;5018203;28;20040;-75
2022/07/01 12:34:42;;;;;;;2.63;1.10;;;21.00;84.70;;;;;;5026026;28;20037;-74
2022/07/01 12:37:17;;;;;;;1.38;1.00;;;20.70;88.30;;;;;;5039206;28;20029;-77
2022/07/01 12:39:51;;;;;;;5.00;1.02;;;20.60;87.10;;;;;;5026917;28;20026;-75
2022/07/01 12:42:21;;;;;;;1.75;0.65;;;20.40;87.30;;;;;;5027054;28;20037;-77
2022/07/01 12:44:48;;;;;;;1.30;1.10;;;20.70;89.70;;;;;;5014835;28;20037;-76
2022/07/01 12:47:29;;;;;;;2.38;1.10;;;20.60;85.20;;;;;;5018276;28;20049;-77
2022/07/01 12:50:12;;;;;;;1.65;0.90;;;20.90;89.00;;;;;;5027527;28;20041;-78
2022/07/01 12:52:43;;;;;;;2.63;1.10;;;21.10;86.10;;;;;;5019407;28;20033;-77
2022/07/01 12:55:18;;;;;;;2.03;0.90;;;21.40;88.10;;;;;;5024555;28;20037;-77
2022/07/01 12:57:47;;;;;;;1.88;0.90;;;22.10;81.00;;;;;;5027599;28;20044;-77
2022/07/01 13:00:15;;;;;;;1.25;0.90;;;21.90;78.90;;;;;;5017111;28;20431;-76
2022/07/01 13:02:41;;;;;;;2.33;0.95;;;21.10;80.60;;;;;;5013580;28;20033;-81
2022/07/01 13:05:08;;;;;;;0.95;0.77;;;20.90;83.50;;;;;;5023195;28;20100;-77